sensor_id;sensor_type;location;lat;lon;timestamp;P1;durP1;ratioP1;P2;durP2;ratioP2
2191;SDS011;1102;49.718;11.902;2023-03-03T00:01:15;14.37;;;12.83;;
2191;SDS011;1102;49.718;11.902;2023-03-03T00:03:43;19.87;;;15.43;;
2191;SDS011;1102;49.718;11.902;2023-03-03T00:06:11;19.50;;;12.00;;
2191;SDS011;1102;49.718;11.902;2023-03-03T00:08:39;16.70;;;12.53;;
2191;SDS011;1102;49.718;11.902;2023-03-03T00:11:06;21.13;;;13.40;;
2191;SDS011;1102;49.718;11.902;2023-03-03T00:18:43;23.27;;;14.93;;
2191;SDS011;1102;49.718;11.902;2023-03-03T00:24:10;19.10;;;13.00;;
2191;SDS011;1102;49.718;11.902;2023-03-03T00:27:34;22.93;;;15.40;;
2191;SDS011;1102;49.718;11.902;2023-03-03T00:29:59;20.83;;;13.70;;
2191;SDS011;1102;49.718;11.902;2023-03-03T00:32:27;22.33;;;15.17;;
2191;SDS011;1102;49.718;11.902;2023-03-03T00:35:22;18.77;;;14.03;;
2191;SDS011;1102;49.718;11.902;2023-03-03T00:37:56;22.10;;;16.33;;
2191;SDS011;1102;49.718;11.902;2023-03-03T00:40:35;19.67;;;13.97;;
2191;SDS011;1102;49.718;11.902;2023-03-03T00:43:24;21.47;;;14.63;;
2191;SDS011;1102;49.718;11.902;2023-03-03T00:45:54;23.93;;;14.10;;
2191;SDS011;1102;49.718;11.902;2023-03-03T00:50:52;23.03;;;15.80;;
2191;SDS011;1102;49.718;11.902;2023-03-03T00:53:21;20.60;;;14.80;;
2191;SDS011;1102;49.718;11.902;2023-03-03T00:55:49;20.07;;;15.17;;
2191;SDS011;1102;49.718;11.902;2023-03-03T00:58:17;21.73;;;15.17;;
2191;SDS011;1102;49.718;11.902;2023-03-03T01:00:51;21.43;;;16.03;;
2191;SDS011;1102;49.718;11.902;2023-03-03T01:03:24;17.83;;;13.60;;
2191;SDS011;1102;49.718;11.902;2023-03-03T01:05:52;22.27;;;16.20;;
2191;SDS011;1102;49.718;11.902;2023-03-03T01:08:20;24.50;;;15.33;;
2191;SDS011;1102;49.718;11.902;2023-03-03T01:10:48;24.23;;;16.00;;
2191;SDS011;1102;49.718;11.902;2023-03-03T01:13:26;21.30;;;16.77;;
2191;SDS011;1102;49.718;11.902;2023-03-03T01:15:55;17.80;;;13.63;;
2191;SDS011;1102;49.718;11.902;2023-03-03T01:18:23;19.23;;;14.20;;
2191;SDS011;1102;49.718;11.902;2023-03-03T01:20:50;19.50;;;15.03;;
2191;SDS011;1102;49.718;11.902;2023-03-03T01:23:16;24.97;;;15.30;;
2191;SDS011;1102;49.718;11.902;2023-03-03T01:25:43;22.17;;;15.13;;
2191;SDS011;1102;49.718;11.902;2023-03-03T01:28:10;20.67;;;13.33;;
2191;SDS011;1102;49.718;11.902;2023-03-03T01:30:36;18.37;;;13.90;;
2191;SDS011;1102;49.718;11.902;2023-03-03T01:33:03;21.60;;;13.37;;
2191;SDS011;1102;49.718;11.902;2023-03-03T01:35:30;22.13;;;14.43;;
2191;SDS011;1102;49.718;11.902;2023-03-03T01:37:57;19.77;;;14.20;;
2191;SDS011;1102;49.718;11.902;2023-03-03T01:40:26;20.57;;;13.30;;
2191;SDS011;1102;49.718;11.902;2023-03-03T01:42:55;18.30;;;13.73;;
2191;SDS011;1102;49.718;11.902;2023-03-03T01:45:25;25.27;;;14.10;;
2191;SDS011;1102;49.718;11.902;2023-03-03T01:47:55;22.40;;;14.50;;
2191;SDS011;1102;49.718;11.902;2023-03-03T02:10:31;18.53;;;12.60;;
2191;SDS011;1102;49.718;11.902;2023-03-03T02:12:58;18.13;;;12.27;;
2191;SDS011;1102;49.718;11.902;2023-03-03T02:15:32;18.47;;;13.40;;
2191;SDS011;1102;49.718;11.902;2023-03-03T02:18:04;18.07;;;13.70;;
2191;SDS011;1102;49.718;11.902;2023-03-03T02:26:18;20.03;;;12.20;;
2191;SDS011;1102;49.718;11.902;2023-03-03T02:28:53;18.23;;;14.33;;
2191;SDS011;1102;49.718;11.902;2023-03-03T02:31:21;16.40;;;12.30;;
2191;SDS011;1102;49.718;11.902;2023-03-03T02:33:50;20.30;;;12.67;;
2191;SDS011;1102;49.718;11.902;2023-03-03T02:36:19;15.77;;;13.83;;
2191;SDS011;1102;49.718;11.902;2023-03-03T02:41:45;19.73;;;13.50;;
2191;SDS011;1102;49.718;11.902;2023-03-03T02:44:30;17.00;;;13.13;;
2191;SDS011;1102;49.718;11.902;2023-03-03T02:46:58;19.17;;;12.97;;
2191;SDS011;1102;49.718;11.902;2023-03-03T02:49:26;21.57;;;14.83;;
2191;SDS011;1102;49.718;11.902;2023-03-03T02:51:57;23.00;;;15.00;;
2191;SDS011;1102;49.718;11.902;2023-03-03T02:54:26;20.10;;;14.07;;
2191;SDS011;1102;49.718;11.902;2023-03-03T02:56:56;16.87;;;12.80;;
2191;SDS011;1102;49.718;11.902;2023-03-03T02:59:25;21.07;;;14.57;;
2191;SDS011;1102;49.718;11.902;2023-03-03T03:01:53;20.63;;;14.87;;
2191;SDS011;1102;49.718;11.902;2023-03-03T03:04:22;18.73;;;15.10;;
2191;SDS011;1102;49.718;11.902;2023-03-03T03:06:54;17.33;;;13.47;;
2191;SDS011;1102;49.718;11.902;2023-03-03T03:09:23;17.57;;;14.13;;
2191;SDS011;1102;49.718;11.902;2023-03-03T03:11:52;24.77;;;14.27;;
2191;SDS011;1102;49.718;11.902;2023-03-03T03:14:22;18.63;;;13.47;;
2191;SDS011;1102;49.718;11.902;2023-03-03T03:16:50;19.87;;;13.67;;
2191;SDS011;1102;49.718;11.902;2023-03-03T03:19:17;22.60;;;14.90;;
2191;SDS011;1102;49.718;11.902;2023-03-03T03:21:45;17.80;;;12.83;;
2191;SDS011;1102;49.718;11.902;2023-03-03T03:24:11;19.80;;;15.53;;
2191;SDS011;1102;49.718;11.902;2023-03-03T03:26:43;21.07;;;13.80;;
2191;SDS011;1102;49.718;11.902;2023-03-03T03:29:09;24.87;;;16.77;;
2191;SDS011;1102;49.718;11.902;2023-03-03T03:31:37;22.07;;;14.77;;
2191;SDS011;1102;49.718;11.902;2023-03-03T03:34:04;21.03;;;13.37;;
2191;SDS011;1102;49.718;11.902;2023-03-03T03:36:32;18.27;;;11.07;;
2191;SDS011;1102;49.718;11.902;2023-03-03T03:38:59;24.23;;;14.07;;
2191;SDS011;1102;49.718;11.902;2023-03-03T03:41:29;24.57;;;13.90;;
2191;SDS011;1102;49.718;11.902;2023-03-03T03:43:55;19.53;;;14.87;;
2191;SDS011;1102;49.718;11.902;2023-03-03T03:46:22;14.47;;;11.97;;
2191;SDS011;1102;49.718;11.902;2023-03-03T03:48:49;39.43;;;20.67;;
2191;SDS011;1102;49.718;11.902;2023-03-03T03:51:18;30.37;;;19.53;;
2191;SDS011;1102;49.718;11.902;2023-03-03T03:53:45;28.20;;;16.43;;
2191;SDS011;1102;49.718;11.902;2023-03-03T03:56:11;22.50;;;16.87;;
2191;SDS011;1102;49.718;11.902;2023-03-03T03:58:40;21.63;;;14.47;;
2191;SDS011;1102;49.718;11.902;2023-03-03T04:01:09;18.57;;;14.17;;
2191;SDS011;1102;49.718;11.902;2023-03-03T04:03:41;18.60;;;14.33;;
2191;SDS011;1102;49.718;11.902;2023-03-03T04:06:11;18.20;;;12.90;;
2191;SDS011;1102;49.718;11.902;2023-03-03T04:08:38;18.23;;;13.47;;
2191;SDS011;1102;49.718;11.902;2023-03-03T04:11:06;21.50;;;13.23;;
2191;SDS011;1102;49.718;11.902;2023-03-03T04:13:33;17.93;;;12.30;;
2191;SDS011;1102;49.718;11.902;2023-03-03T04:16:03;18.57;;;13.03;;
2191;SDS011;1102;49.718;11.902;2023-03-03T04:18:30;20.77;;;14.83;;
2191;SDS011;1102;49.718;11.902;2023-03-03T04:20:57;18.43;;;13.50;;
2191;SDS011;1102;49.718;11.902;2023-03-03T04:23:25;24.27;;;13.70;;
2191;SDS011;1102;49.718;11.902;2023-03-03T04:25:52;17.70;;;12.50;;
2191;SDS011;1102;49.718;11.902;2023-03-03T04:28:20;18.70;;;12.80;;
2191;SDS011;1102;49.718;11.902;2023-03-03T04:30:48;20.03;;;13.53;;
2191;SDS011;1102;49.718;11.902;2023-03-03T04:33:16;16.70;;;12.43;;
2191;SDS011;1102;49.718;11.902;2023-03-03T04:35:44;16.63;;;13.93;;
2191;SDS011;1102;49.718;11.902;2023-03-03T04:38:11;14.20;;;11.60;;
2191;SDS011;1102;49.718;11.902;2023-03-03T04:40:40;19.87;;;14.47;;
2191;SDS011;1102;49.718;11.902;2023-03-03T04:43:08;17.93;;;13.80;;
2191;SDS011;1102;49.718;11.902;2023-03-03T04:45:35;19.93;;;14.27;;
2191;SDS011;1102;49.718;11.902;2023-03-03T04:48:02;18.20;;;13.73;;
2191;SDS011;1102;49.718;11.902;2023-03-03T04:50:30;20.20;;;14.60;;
2191;SDS011;1102;49.718;11.902;2023-03-03T04:52:57;24.40;;;13.83;;
2191;SDS011;1102;49.718;11.902;2023-03-03T04:55:23;21.07;;;13.50;;
2191;SDS011;1102;49.718;11.902;2023-03-03T04:57:50;19.90;;;14.93;;
2191;SDS011;1102;49.718;11.902;2023-03-03T05:00:17;20.43;;;15.07;;
2191;SDS011;1102;49.718;11.902;2023-03-03T05:02:46;22.10;;;15.07;;
2191;SDS011;1102;49.718;11.902;2023-03-03T05:05:14;21.33;;;14.20;;
2191;SDS011;1102;49.718;11.902;2023-03-03T05:07:40;22.27;;;15.43;;
2191;SDS011;1102;49.718;11.902;2023-03-03T05:10:07;23.00;;;16.10;;
2191;SDS011;1102;49.718;11.902;2023-03-03T05:12:34;27.33;;;17.87;;
2191;SDS011;1102;49.718;11.902;2023-03-03T05:15:01;24.10;;;16.70;;
2191;SDS011;1102;49.718;11.902;2023-03-03T05:17:28;23.23;;;15.47;;
2191;SDS011;1102;49.718;11.902;2023-03-03T05:19:54;28.17;;;18.70;;
2191;SDS011;1102;49.718;11.902;2023-03-03T05:22:22;25.23;;;18.27;;
2191;SDS011;1102;49.718;11.902;2023-03-03T05:24:49;24.73;;;16.53;;
2191;SDS011;1102;49.718;11.902;2023-03-03T05:27:16;27.47;;;15.63;;
2191;SDS011;1102;49.718;11.902;2023-03-03T05:29:43;28.10;;;19.43;;
2191;SDS011;1102;49.718;11.902;2023-03-03T05:32:10;29.27;;;17.20;;
2191;SDS011;1102;49.718;11.902;2023-03-03T05:34:36;23.20;;;18.90;;
2191;SDS011;1102;49.718;11.902;2023-03-03T05:37:05;30.77;;;19.87;;
2191;SDS011;1102;49.718;11.902;2023-03-03T05:39:33;33.50;;;21.37;;
2191;SDS011;1102;49.718;11.902;2023-03-03T05:42:00;37.20;;;21.33;;
2191;SDS011;1102;49.718;11.902;2023-03-03T05:44:27;29.37;;;19.63;;
2191;SDS011;1102;49.718;11.902;2023-03-03T05:46:54;38.23;;;21.43;;
2191;SDS011;1102;49.718;11.902;2023-03-03T05:49:22;35.80;;;20.77;;
2191;SDS011;1102;49.718;11.902;2023-03-03T05:51:48;32.63;;;20.90;;
2191;SDS011;1102;49.718;11.902;2023-03-03T05:54:15;27.80;;;20.10;;
2191;SDS011;1102;49.718;11.902;2023-03-03T05:56:41;29.70;;;20.30;;
2191;SDS011;1102;49.718;11.902;2023-03-03T05:59:08;27.37;;;20.13;;
2191;SDS011;1102;49.718;11.902;2023-03-03T06:01:35;27.80;;;19.40;;
2191;SDS011;1102;49.718;11.902;2023-03-03T06:04:01;24.70;;;17.37;;
2191;SDS011;1102;49.718;11.902;2023-03-03T06:06:28;29.97;;;19.63;;
2191;SDS011;1102;49.718;11.902;2023-03-03T06:08:55;34.47;;;21.90;;
2191;SDS011;1102;49.718;11.902;2023-03-03T06:11:22;35.70;;;21.97;;
2191;SDS011;1102;49.718;11.902;2023-03-03T06:13:49;31.03;;;19.47;;
2191;SDS011;1102;49.718;11.902;2023-03-03T06:16:16;33.60;;;20.53;;
2191;SDS011;1102;49.718;11.902;2023-03-03T06:18:43;35.33;;;20.60;;
2191;SDS011;1102;49.718;11.902;2023-03-03T06:21:10;26.27;;;18.70;;
2191;SDS011;1102;49.718;11.902;2023-03-03T06:23:36;25.20;;;18.53;;
2191;SDS011;1102;49.718;11.902;2023-03-03T06:26:03;32.33;;;20.27;;
2191;SDS011;1102;49.718;11.902;2023-03-03T06:28:30;28.83;;;19.77;;
2191;SDS011;1102;49.718;11.902;2023-03-03T06:30:56;26.63;;;18.90;;
2191;SDS011;1102;49.718;11.902;2023-03-03T06:33:23;29.10;;;18.63;;
2191;SDS011;1102;49.718;11.902;2023-03-03T06:35:50;36.77;;;23.27;;
2191;SDS011;1102;49.718;11.902;2023-03-03T06:38:18;27.43;;;19.93;;
2191;SDS011;1102;49.718;11.902;2023-03-03T06:40:45;34.67;;;23.93;;
2191;SDS011;1102;49.718;11.902;2023-03-03T06:43:12;43.93;;;26.07;;
2191;SDS011;1102;49.718;11.902;2023-03-03T06:45:39;40.13;;;24.90;;
2191;SDS011;1102;49.718;11.902;2023-03-03T06:48:06;37.33;;;23.53;;
2191;SDS011;1102;49.718;11.902;2023-03-03T06:50:33;36.53;;;22.47;;
2191;SDS011;1102;49.718;11.902;2023-03-03T06:53:21;36.53;;;23.77;;
2191;SDS011;1102;49.718;11.902;2023-03-03T06:55:47;37.47;;;22.73;;
2191;SDS011;1102;49.718;11.902;2023-03-03T06:58:14;39.63;;;25.43;;
2191;SDS011;1102;49.718;11.902;2023-03-03T07:01:07;41.70;;;23.40;;
2191;SDS011;1102;49.718;11.902;2023-03-03T07:03:35;39.47;;;24.00;;
2191;SDS011;1102;49.718;11.902;2023-03-03T07:06:07;38.43;;;23.60;;
2191;SDS011;1102;49.718;11.902;2023-03-03T07:08:41;50.17;;;27.67;;
2191;SDS011;1102;49.718;11.902;2023-03-03T07:11:10;44.40;;;27.30;;
2191;SDS011;1102;49.718;11.902;2023-03-03T07:13:41;42.87;;;26.37;;
2191;SDS011;1102;49.718;11.902;2023-03-03T07:16:12;40.50;;;24.70;;
2191;SDS011;1102;49.718;11.902;2023-03-03T07:18:46;43.90;;;26.70;;
2191;SDS011;1102;49.718;11.902;2023-03-03T07:21:17;44.87;;;25.47;;
2191;SDS011;1102;49.718;11.902;2023-03-03T07:23:47;36.93;;;23.43;;
2191;SDS011;1102;49.718;11.902;2023-03-03T07:26:31;38.90;;;25.67;;
2191;SDS011;1102;49.718;11.902;2023-03-03T07:29:18;46.43;;;25.37;;
2191;SDS011;1102;49.718;11.902;2023-03-03T07:31:49;40.20;;;25.40;;
2191;SDS011;1102;49.718;11.902;2023-03-03T07:34:19;40.43;;;26.50;;
2191;SDS011;1102;49.718;11.902;2023-03-03T07:36:48;42.17;;;25.13;;
2191;SDS011;1102;49.718;11.902;2023-03-03T07:44:35;40.17;;;24.77;;
2191;SDS011;1102;49.718;11.902;2023-03-03T07:47:11;41.17;;;21.90;;
2191;SDS011;1102;49.718;11.902;2023-03-03T07:49:44;38.17;;;24.30;;
2191;SDS011;1102;49.718;11.902;2023-03-03T07:52:31;40.53;;;21.43;;
2191;SDS011;1102;49.718;11.902;2023-03-03T07:57:58;38.80;;;23.83;;
2191;SDS011;1102;49.718;11.902;2023-03-03T08:03:07;39.07;;;20.67;;
2191;SDS011;1102;49.718;11.902;2023-03-03T08:05:42;56.33;;;33.80;;
2191;SDS011;1102;49.718;11.902;2023-03-03T08:10:57;30.33;;;20.20;;
2191;SDS011;1102;49.718;11.902;2023-03-03T08:18:35;56.90;;;20.97;;
2191;SDS011;1102;49.718;11.902;2023-03-03T08:21:10;32.90;;;21.00;;
2191;SDS011;1102;49.718;11.902;2023-03-03T08:23:39;33.97;;;19.50;;
2191;SDS011;1102;49.718;11.902;2023-03-03T08:26:06;28.43;;;17.90;;
2191;SDS011;1102;49.718;11.902;2023-03-03T08:28:33;26.40;;;20.07;;
2191;SDS011;1102;49.718;11.902;2023-03-03T08:31:00;33.20;;;20.13;;
2191;SDS011;1102;49.718;11.902;2023-03-03T08:33:45;27.77;;;19.00;;
2191;SDS011;1102;49.718;11.902;2023-03-03T08:36:12;33.00;;;21.07;;
2191;SDS011;1102;49.718;11.902;2023-03-03T08:38:40;34.77;;;20.27;;
2191;SDS011;1102;49.718;11.902;2023-03-03T08:41:06;30.80;;;19.17;;
2191;SDS011;1102;49.718;11.902;2023-03-03T08:43:33;33.10;;;20.70;;
2191;SDS011;1102;49.718;11.902;2023-03-03T08:46:00;30.80;;;20.50;;
2191;SDS011;1102;49.718;11.902;2023-03-03T08:48:29;26.47;;;18.60;;
2191;SDS011;1102;49.718;11.902;2023-03-03T08:50:56;25.40;;;17.63;;
2191;SDS011;1102;49.718;11.902;2023-03-03T08:53:23;37.87;;;21.97;;
2191;SDS011;1102;49.718;11.902;2023-03-03T08:55:50;33.50;;;21.37;;
2191;SDS011;1102;49.718;11.902;2023-03-03T08:58:17;30.13;;;19.60;;
2191;SDS011;1102;49.718;11.902;2023-03-03T09:00:46;26.10;;;17.93;;
2191;SDS011;1102;49.718;11.902;2023-03-03T09:03:16;26.17;;;18.20;;
2191;SDS011;1102;49.718;11.902;2023-03-03T09:05:43;35.60;;;19.93;;
2191;SDS011;1102;49.718;11.902;2023-03-03T09:08:10;30.90;;;18.50;;
2191;SDS011;1102;49.718;11.902;2023-03-03T09:10:37;31.53;;;20.53;;
2191;SDS011;1102;49.718;11.902;2023-03-03T09:13:14;30.07;;;20.00;;
2191;SDS011;1102;49.718;11.902;2023-03-03T09:15:46;24.00;;;16.93;;
2191;SDS011;1102;49.718;11.902;2023-03-03T09:20:49;25.97;;;18.70;;
2191;SDS011;1102;49.718;11.902;2023-03-03T09:28:45;26.63;;;16.73;;
2191;SDS011;1102;49.718;11.902;2023-03-03T09:31:23;19.97;;;16.20;;
2191;SDS011;1102;49.718;11.902;2023-03-03T09:36:53;22.97;;;15.67;;
2191;SDS011;1102;49.718;11.902;2023-03-03T09:39:22;22.97;;;15.13;;
2191;SDS011;1102;49.718;11.902;2023-03-03T09:50:25;23.67;;;17.37;;
2191;SDS011;1102;49.718;11.902;2023-03-03T09:55:38;24.50;;;15.73;;
2191;SDS011;1102;49.718;11.902;2023-03-03T10:17:13;28.73;;;15.40;;
2191;SDS011;1102;49.718;11.902;2023-03-03T10:28:01;20.23;;;14.67;;
2191;SDS011;1102;49.718;11.902;2023-03-03T10:30:41;25.77;;;15.67;;
2191;SDS011;1102;49.718;11.902;2023-03-03T10:36:45;20.93;;;14.10;;
2191;SDS011;1102;49.718;11.902;2023-03-03T10:53:29;26.00;;;16.70;;
2191;SDS011;1102;49.718;11.902;2023-03-03T11:02:19;15.13;;;12.83;;
2191;SDS011;1102;49.718;11.902;2023-03-03T11:04:57;22.13;;;14.73;;
2191;SDS011;1102;49.718;11.902;2023-03-03T11:29:00;20.63;;;13.00;;
2191;SDS011;1102;49.718;11.902;2023-03-03T11:36:53;18.10;;;12.27;;
2191;SDS011;1102;49.718;11.902;2023-03-03T11:39:27;20.13;;;14.83;;
2191;SDS011;1102;49.718;11.902;2023-03-03T11:42:10;19.17;;;13.60;;
2191;SDS011;1102;49.718;11.902;2023-03-03T11:44:56;20.03;;;14.40;;
2191;SDS011;1102;49.718;11.902;2023-03-03T11:47:32;21.10;;;12.53;;
2191;SDS011;1102;49.718;11.902;2023-03-03T11:50:07;18.90;;;13.57;;
2191;SDS011;1102;49.718;11.902;2023-03-03T11:52:43;21.20;;;14.30;;
2191;SDS011;1102;49.718;11.902;2023-03-03T11:55:37;16.57;;;13.60;;
2191;SDS011;1102;49.718;11.902;2023-03-03T11:58:19;19.93;;;13.33;;
2191;SDS011;1102;49.718;11.902;2023-03-03T12:08:49;18.60;;;12.90;;
2191;SDS011;1102;49.718;11.902;2023-03-03T12:11:46;16.70;;;12.43;;
2191;SDS011;1102;49.718;11.902;2023-03-03T12:14:28;17.60;;;12.40;;
2191;SDS011;1102;49.718;11.902;2023-03-03T12:17:05;19.23;;;13.80;;
2191;SDS011;1102;49.718;11.902;2023-03-03T12:25:39;15.90;;;11.60;;
2191;SDS011;1102;49.718;11.902;2023-03-03T12:39:17;17.43;;;12.30;;
2191;SDS011;1102;49.718;11.902;2023-03-03T12:50:42;15.03;;;10.43;;
2191;SDS011;1102;49.718;11.902;2023-03-03T12:56:03;15.20;;;11.70;;
2191;SDS011;1102;49.718;11.902;2023-03-03T13:04:33;15.70;;;11.23;;
2191;SDS011;1102;49.718;11.902;2023-03-03T13:07:20;13.37;;;11.47;;
2191;SDS011;1102;49.718;11.902;2023-03-03T13:13:07;19.43;;;14.47;;
2191;SDS011;1102;49.718;11.902;2023-03-03T13:15:43;24.13;;;11.70;;
2191;SDS011;1102;49.718;11.902;2023-03-03T13:18:27;17.33;;;12.97;;
2191;SDS011;1102;49.718;11.902;2023-03-03T13:26:52;18.90;;;13.37;;
2191;SDS011;1102;49.718;11.902;2023-03-03T13:31:59;18.27;;;12.47;;
2191;SDS011;1102;49.718;11.902;2023-03-03T13:42:43;16.40;;;13.87;;
2191;SDS011;1102;49.718;11.902;2023-03-03T13:56:26;20.80;;;14.67;;
2191;SDS011;1102;49.718;11.902;2023-03-03T14:07:06;18.63;;;13.87;;
2191;SDS011;1102;49.718;11.902;2023-03-03T14:09:40;17.17;;;12.60;;
2191;SDS011;1102;49.718;11.902;2023-03-03T14:12:56;19.00;;;13.13;;
2191;SDS011;1102;49.718;11.902;2023-03-03T14:15:05;17.00;;;12.50;;
2191;SDS011;1102;49.718;11.902;2023-03-03T14:20:40;15.27;;;12.70;;
2191;SDS011;1102;49.718;11.902;2023-03-03T14:23:18;15.70;;;11.77;;
2191;SDS011;1102;49.718;11.902;2023-03-03T14:25:52;16.20;;;13.20;;
2191;SDS011;1102;49.718;11.902;2023-03-03T14:28:26;19.70;;;13.97;;
2191;SDS011;1102;49.718;11.902;2023-03-03T14:30:55;18.90;;;14.17;;
2191;SDS011;1102;49.718;11.902;2023-03-03T14:33:29;16.23;;;13.63;;
2191;SDS011;1102;49.718;11.902;2023-03-03T14:38:46;14.67;;;11.80;;
2191;SDS011;1102;49.718;11.902;2023-03-03T14:43:42;16.07;;;12.37;;
2191;SDS011;1102;49.718;11.902;2023-03-03T14:49:03;17.10;;;13.27;;
2191;SDS011;1102;49.718;11.902;2023-03-03T14:51:44;15.80;;;10.27;;
2191;SDS011;1102;49.718;11.902;2023-03-03T15:00:28;19.20;;;12.40;;
2191;SDS011;1102;49.718;11.902;2023-03-03T15:02:43;17.80;;;12.80;;
2191;SDS011;1102;49.718;11.902;2023-03-03T15:05:26;12.90;;;11.13;;
2191;SDS011;1102;49.718;11.902;2023-03-03T15:07:54;15.60;;;11.60;;
2191;SDS011;1102;49.718;11.902;2023-03-03T15:10:29;15.80;;;12.10;;
2191;SDS011;1102;49.718;11.902;2023-03-03T15:13:48;14.70;;;11.90;;
2191;SDS011;1102;49.718;11.902;2023-03-03T15:18:26;16.37;;;11.13;;
2191;SDS011;1102;49.718;11.902;2023-03-03T15:26:22;13.67;;;9.87;;
2191;SDS011;1102;49.718;11.902;2023-03-03T15:28:55;12.47;;;9.27;;
2191;SDS011;1102;49.718;11.902;2023-03-03T15:31:38;13.03;;;8.50;;
2191;SDS011;1102;49.718;11.902;2023-03-03T15:39:51;17.43;;;9.70;;
2191;SDS011;1102;49.718;11.902;2023-03-03T16:04:33;11.17;;;5.57;;
2191;SDS011;1102;49.718;11.902;2023-03-03T16:12:51;15.53;;;7.63;;
2191;SDS011;1102;49.718;11.902;2023-03-03T16:31:35;12.60;;;7.83;;
2191;SDS011;1102;49.718;11.902;2023-03-03T16:34:22;11.70;;;8.00;;
2191;SDS011;1102;49.718;11.902;2023-03-03T16:42:31;12.33;;;7.40;;
2191;SDS011;1102;49.718;11.902;2023-03-03T16:50:37;12.20;;;8.40;;
2191;SDS011;1102;49.718;11.902;2023-03-03T17:06:46;12.47;;;8.90;;
2191;SDS011;1102;49.718;11.902;2023-03-03T17:09:37;14.10;;;10.00;;
2191;SDS011;1102;49.718;11.902;2023-03-03T17:12:22;14.70;;;8.60;;
2191;SDS011;1102;49.718;11.902;2023-03-03T17:18:00;18.53;;;10.93;;
2191;SDS011;1102;49.718;11.902;2023-03-03T17:20:49;17.23;;;9.50;;
2191;SDS011;1102;49.718;11.902;2023-03-03T17:25:57;16.60;;;9.50;;
2191;SDS011;1102;49.718;11.902;2023-03-03T17:28:33;19.70;;;10.17;;
2191;SDS011;1102;49.718;11.902;2023-03-03T17:31:16;14.63;;;10.67;;
2191;SDS011;1102;49.718;11.902;2023-03-03T17:34:25;15.97;;;10.47;;
2191;SDS011;1102;49.718;11.902;2023-03-03T17:37:02;17.40;;;9.43;;
2191;SDS011;1102;49.718;11.902;2023-03-03T17:42:20;14.97;;;9.37;;
2191;SDS011;1102;49.718;11.902;2023-03-03T18:04:34;20.67;;;11.17;;
2191;SDS011;1102;49.718;11.902;2023-03-03T18:13:31;21.20;;;10.87;;
2191;SDS011;1102;49.718;11.902;2023-03-03T18:16:23;16.93;;;10.53;;
2191;SDS011;1102;49.718;11.902;2023-03-03T18:24:37;18.20;;;11.70;;
2191;SDS011;1102;49.718;11.902;2023-03-03T18:32:58;21.63;;;11.13;;
2191;SDS011;1102;49.718;11.902;2023-03-03T18:38:44;18.40;;;12.30;;
2191;SDS011;1102;49.718;11.902;2023-03-03T18:54:00;17.30;;;13.83;;
2191;SDS011;1102;49.718;11.902;2023-03-03T19:05:03;19.37;;;13.70;;
2191;SDS011;1102;49.718;11.902;2023-03-03T19:24:08;22.03;;;12.07;;
2191;SDS011;1102;49.718;11.902;2023-03-03T19:34:53;28.30;;;16.90;;
2191;SDS011;1102;49.718;11.902;2023-03-03T19:37:38;28.03;;;15.93;;
2191;SDS011;1102;49.718;11.902;2023-03-03T19:45:27;31.27;;;17.03;;
2191;SDS011;1102;49.718;11.902;2023-03-03T20:06:58;31.57;;;17.60;;
2191;SDS011;1102;49.718;11.902;2023-03-03T20:14:47;29.50;;;15.30;;
2191;SDS011;1102;49.718;11.902;2023-03-03T20:17:37;30.20;;;14.90;;
2191;SDS011;1102;49.718;11.902;2023-03-03T20:25:47;26.90;;;17.07;;
2191;SDS011;1102;49.718;11.902;2023-03-03T20:28:52;31.60;;;14.70;;
2191;SDS011;1102;49.718;11.902;2023-03-03T20:42:21;25.63;;;15.53;;
2191;SDS011;1102;49.718;11.902;2023-03-03T20:56:21;23.27;;;16.20;;
2191;SDS011;1102;49.718;11.902;2023-03-03T20:59:08;24.47;;;12.77;;
2191;SDS011;1102;49.718;11.902;2023-03-03T21:01:41;31.37;;;16.20;;
2191;SDS011;1102;49.718;11.902;2023-03-03T21:04:25;27.03;;;14.90;;
2191;SDS011;1102;49.718;11.902;2023-03-03T21:06:54;26.93;;;16.00;;
2191;SDS011;1102;49.718;11.902;2023-03-03T21:09:26;24.20;;;15.87;;
2191;SDS011;1102;49.718;11.902;2023-03-03T21:11:58;24.53;;;14.47;;
2191;SDS011;1102;49.718;11.902;2023-03-03T21:14:28;24.90;;;16.23;;
2191;SDS011;1102;49.718;11.902;2023-03-03T21:17:23;25.77;;;15.00;;
2191;SDS011;1102;49.718;11.902;2023-03-03T21:19:50;31.57;;;17.80;;
2191;SDS011;1102;49.718;11.902;2023-03-03T21:22:17;23.40;;;13.60;;
2191;SDS011;1102;49.718;11.902;2023-03-03T21:27:26;30.13;;;16.27;;
2191;SDS011;1102;49.718;11.902;2023-03-03T21:30:00;19.60;;;13.33;;
2191;SDS011;1102;49.718;11.902;2023-03-03T21:32:48;32.40;;;17.60;;
2191;SDS011;1102;49.718;11.902;2023-03-03T21:35:20;23.93;;;15.40;;
2191;SDS011;1102;49.718;11.902;2023-03-03T21:37:51;25.40;;;15.10;;
2191;SDS011;1102;49.718;11.902;2023-03-03T21:40:24;30.00;;;18.67;;
2191;SDS011;1102;49.718;11.902;2023-03-03T21:42:56;28.80;;;15.70;;
2191;SDS011;1102;49.718;11.902;2023-03-03T21:45:26;28.13;;;17.40;;
2191;SDS011;1102;49.718;11.902;2023-03-03T21:47:55;25.37;;;16.70;;
2191;SDS011;1102;49.718;11.902;2023-03-03T21:50:26;30.60;;;14.47;;
2191;SDS011;1102;49.718;11.902;2023-03-03T21:52:56;28.93;;;16.43;;
2191;SDS011;1102;49.718;11.902;2023-03-03T21:55:23;29.23;;;15.47;;
2191;SDS011;1102;49.718;11.902;2023-03-03T21:57:52;23.10;;;15.40;;
2191;SDS011;1102;49.718;11.902;2023-03-03T22:00:18;25.97;;;14.70;;
2191;SDS011;1102;49.718;11.902;2023-03-03T22:02:45;25.00;;;14.73;;
2191;SDS011;1102;49.718;11.902;2023-03-03T22:05:12;23.00;;;13.07;;
2191;SDS011;1102;49.718;11.902;2023-03-03T22:07:38;19.40;;;14.00;;
2191;SDS011;1102;49.718;11.902;2023-03-03T22:10:05;26.87;;;15.47;;
2191;SDS011;1102;49.718;11.902;2023-03-03T22:12:32;21.90;;;13.67;;
2191;SDS011;1102;49.718;11.902;2023-03-03T22:14:59;24.07;;;16.37;;
2191;SDS011;1102;49.718;11.902;2023-03-03T22:17:26;24.43;;;16.03;;
2191;SDS011;1102;49.718;11.902;2023-03-03T22:19:53;22.27;;;13.67;;
2191;SDS011;1102;49.718;11.902;2023-03-03T22:22:20;19.33;;;13.93;;
2191;SDS011;1102;49.718;11.902;2023-03-03T22:24:47;27.50;;;15.20;;
2191;SDS011;1102;49.718;11.902;2023-03-03T22:27:15;23.90;;;13.23;;
2191;SDS011;1102;49.718;11.902;2023-03-03T22:29:41;31.87;;;15.57;;
2191;SDS011;1102;49.718;11.902;2023-03-03T22:32:08;19.77;;;12.83;;
2191;SDS011;1102;49.718;11.902;2023-03-03T22:34:35;25.43;;;15.60;;
2191;SDS011;1102;49.718;11.902;2023-03-03T22:37:01;27.00;;;15.70;;
2191;SDS011;1102;49.718;11.902;2023-03-03T22:39:28;23.50;;;14.00;;
2191;SDS011;1102;49.718;11.902;2023-03-03T22:41:55;21.07;;;14.77;;
2191;SDS011;1102;49.718;11.902;2023-03-03T22:44:21;22.63;;;14.47;;
2191;SDS011;1102;49.718;11.902;2023-03-03T22:46:48;24.30;;;15.83;;
2191;SDS011;1102;49.718;11.902;2023-03-03T22:49:15;24.17;;;16.80;;
2191;SDS011;1102;49.718;11.902;2023-03-03T22:51:41;26.80;;;15.70;;
2191;SDS011;1102;49.718;11.902;2023-03-03T22:54:08;24.07;;;15.83;;
2191;SDS011;1102;49.718;11.902;2023-03-03T22:56:34;19.67;;;13.23;;
2191;SDS011;1102;49.718;11.902;2023-03-03T22:59:01;27.70;;;15.80;;
2191;SDS011;1102;49.718;11.902;2023-03-03T23:01:28;20.43;;;12.77;;
2191;SDS011;1102;49.718;11.902;2023-03-03T23:03:55;23.03;;;14.30;;
2191;SDS011;1102;49.718;11.902;2023-03-03T23:06:22;26.80;;;16.03;;
2191;SDS011;1102;49.718;11.902;2023-03-03T23:08:48;26.23;;;15.60;;
2191;SDS011;1102;49.718;11.902;2023-03-03T23:11:15;21.70;;;13.77;;
2191;SDS011;1102;49.718;11.902;2023-03-03T23:13:41;17.00;;;13.00;;
2191;SDS011;1102;49.718;11.902;2023-03-03T23:16:08;19.90;;;13.60;;